This is the latest recevied weather packets stored in our database for station/object KE8GJZ-1. If no packets are shown the sender has not sent any weather packets the latest 10 day(s).
| Time | Temp. | Humidity | Pressure | Rain* | Wind** | Luminosity | Snow |
|---|---|---|---|---|---|---|---|
| 1777772955 | 3.89° C | 67% | 1014.4 hPa | 0 mm | - | 0 W/m² | - |
| 1777768714 | 7.22° C | 50% | 1013.8 hPa | 0 mm | - | 0 W/m² | - |
| 1777768411 | 7.22° C | 49% | 1014 hPa | 0 mm | - | 0 W/m² | - |
| 1777767805 | 7.78° C | 49% | 1014.1 hPa | 0 mm | - | 5 W/m² | - |
| 1777767501 | 7.78° C | 46% | 1013.9 hPa | 0 mm | - | 9 W/m² | - |
| 1777766895 | 7.78° C | 48% | 1013.8 hPa | 0 mm | - | 12 W/m² | - |
| 1777766593 | 7.78° C | 47% | 1013.8 hPa | 0 mm | - | 13 W/m² | - |
| 1777763863 | 8.89° C | 49% | 1014 hPa | 0 mm | - | 42 W/m² | - |
| 1777763561 | 8.89° C | 48% | 1014.3 hPa | 0 mm | - | 46 W/m² | - |
| 1777760836 | 8.33° C | 45% | 1014.3 hPa | 0 mm | - | 73 W/m² | - |
| 1777760532 | 8.89° C | 44% | 1014.3 hPa | 0 mm | - | 71 W/m² | - |
| 1777759318 | 8.89° C | 44% | 1014.4 hPa | 0 mm | - | 78 W/m² | - |
| 1777757803 | 8.89° C | 43% | 1014.5 hPa | 0 mm | - | 110 W/m² | - |
| 1777757500 | 8.89° C | 42% | 1014.3 hPa | 0 mm | - | 104 W/m² | - |
| 1777757199 | 9.44° C | 41% | 1014.4 hPa | 0 mm | - | 117 W/m² | - |
| 1777756290 | 9.44° C | 42% | 1014.3 hPa | 0 mm | - | 96 W/m² | - |
| 1777754169 | 8.89° C | 43% | 1014.4 hPa | 0 mm | - | 157 W/m² | - |
| 1777753867 | 8.89° C | 42% | 1014.6 hPa | 0 mm | - | 173 W/m² | - |
| 1777753562 | 8.89° C | 42% | 1014.7 hPa | 0 mm | - | 117 W/m² | - |
| 1777753260 | 8.89° C | 44% | 1014.8 hPa | 0 mm | - | 147 W/m² | - |
| 1777752956 | 8.33° C | 43% | 1014.8 hPa | 0 mm | - | 234 W/m² | - |
| 1777752653 | 8.33° C | 44% | 1015 hPa | 0 mm | - | 107 W/m² | - |
| 1777752348 | 8.89° C | 42% | 1014.9 hPa | 0 mm | - | 85 W/m² | - |
| 1777752047 | 9.44° C | 41% | 1014.8 hPa | 0 mm | - | 116 W/m² | - |
| 1777751744 | 10° C | 41% | 1015.1 hPa | 0 mm | - | 235 W/m² | - |
* Rain latest hour (hover to see other rain measurements)
** Current wind speed in m/s (hover to see current wind gust speed)